Time;durP1;ratioP1;P1;durP2;ratioP2;P2;SDS_P1;SDS_P2;PMS_P1;PMS_P2;Temp;Humidity;BMP_temperature;BMP_pressure;BME280_temperature;BME280_humidity;BME280_pressure;Samples;Min_cycle;Max_cycle;Signal;HPM_P1;HPM_P2
2021/08/27 00:00:29;;;;;;;9.50;4.00;;;13.60;21.90;;;;;;5093330;28;20055;-72
2021/08/27 00:02:58;;;;;;;7.72;3.65;;;13.60;22.50;;;;;;5096271;28;20054;-71
2021/08/27 00:05:27;;;;;;;8.00;3.97;;;13.70;22.10;;;;;;5099093;28;20522;-72
2021/08/27 00:07:56;;;;;;;8.27;3.58;;;13.80;21.80;;;;;;5093584;28;20052;-70
2021/08/27 00:10:24;;;;;;;9.43;3.97;;;13.80;20.50;;;;;;5093449;28;20052;-72
2021/08/27 00:12:53;;;;;;;8.73;3.80;;;13.70;21.60;;;;;;5103166;28;20124;-72
2021/08/27 00:15:21;;;;;;;6.38;3.67;;;13.70;21.40;;;;;;5070829;27;20055;-72
2021/08/27 00:17:49;;;;;;;7.80;3.45;;;13.70;21.60;;;;;;5104489;28;20032;-71
2021/08/27 00:20:17;;;;;;;7.88;3.78;;;13.70;21.10;;;;;;5077554;28;20062;-72
2021/08/27 00:22:45;;;;;;;7.60;3.97;;;13.70;22.00;;;;;;5098000;28;20071;-72
2021/08/27 00:25:14;;;;;;;5.32;4.03;;;13.70;21.80;;;;;;5103908;28;20104;-71
2021/08/27 00:27:42;;;;;;;8.45;4.10;;;13.80;21.70;;;;;;5101241;28;20077;-72
2021/08/27 00:30:11;;;;;;;6.55;3.72;;;13.90;21.20;;;;;;5096615;28;20047;-72
2021/08/27 00:32:40;;;;;;;6.20;3.33;;;13.90;20.70;;;;;;5057431;28;20052;-72
2021/08/27 00:35:08;;;;;;;7.68;3.42;;;13.90;20.60;;;;;;5094514;28;20106;-72
2021/08/27 00:37:36;;;;;;;7.50;3.83;;;13.90;20.50;;;;;;5086987;28;20048;-72
2021/08/27 00:40:06;;;;;;;5.97;3.40;;;13.90;20.70;;;;;;5100992;28;20036;-72
2021/08/27 00:42:36;;;;;;;7.40;3.40;;;13.90;20.50;;;;;;5099798;28;20457;-72
2021/08/27 00:45:04;;;;;;;8.05;3.50;;;13.90;19.80;;;;;;5099078;28;20048;-72
2021/08/27 00:47:32;;;;;;;8.85;3.50;;;14.00;20.30;;;;;;5104571;28;20040;-73
2021/08/27 00:50:00;;;;;;;6.45;3.75;;;14.00;19.90;;;;;;5097703;28;20047;-73
2021/08/27 00:52:29;;;;;;;9.45;4.00;;;13.90;19.70;;;;;;5096042;28;20100;-73
2021/08/27 00:54:57;;;;;;;7.18;3.88;;;13.80;20.90;;;;;;5085038;28;20055;-73
2021/08/27 00:57:24;;;;;;;8.75;4.15;;;13.90;21.00;;;;;;5103258;28;20040;-73
2021/08/27 00:59:54;;;;;;;5.78;3.65;;;13.90;20.70;;;;;;5099855;28;20047;-73
2021/08/27 01:02:22;;;;;;;8.05;4.10;;;14.00;20.50;;;;;;5099811;28;20056;-71
2021/08/27 01:04:52;;;;;;;6.97;4.43;;;13.90;19.90;;;;;;5103451;28;20047;-73
2021/08/27 01:07:23;;;;;;;9.35;4.80;;;13.90;21.20;;;;;;5104024;28;20044;-70
2021/08/27 01:09:59;;;;;;;6.18;3.72;;;13.90;21.30;;;;;;5097390;28;20059;-71
2021/08/27 01:12:41;;;;;;;7.10;3.83;;;13.80;22.00;;;;;;5085183;28;20044;-71
2021/08/27 01:15:16;;;;;;;7.38;3.38;;;13.80;23.20;;;;;;5106420;28;20576;-71
2021/08/27 01:17:50;;;;;;;7.40;3.80;;;13.90;23.20;;;;;;5104337;28;20051;-71
2021/08/27 01:20:46;;;;;;;7.90;4.07;;;13.80;23.40;;;;;;5075455;28;20093;-71
2021/08/27 01:23:28;;;;;;;9.40;3.95;;;13.70;24.60;;;;;;5103509;28;20050;-71
2021/08/27 01:25:58;;;;;;;9.73;3.70;;;13.80;25.60;;;;;;5105582;28;20134;-71
2021/08/27 01:28:28;;;;;;;9.27;3.70;;;13.70;25.30;;;;;;5103361;28;21463;-72
2021/08/27 01:31:28;;;;;;;6.20;3.80;;;13.70;26.50;;;;;;5096657;28;20109;-72
2021/08/27 01:34:02;;;;;;;8.55;3.70;;;13.70;26.40;;;;;;5087341;28;20135;-72
2021/08/27 01:36:35;;;;;;;6.05;4.07;;;13.70;26.30;;;;;;5101393;28;20036;-71
2021/08/27 01:39:06;;;;;;;8.00;4.10;;;13.70;26.70;;;;;;5096189;28;20395;-72
2021/08/27 01:41:36;;;;;;;10.18;3.70;;;13.70;27.70;;;;;;5094506;28;20554;-72
2021/08/27 01:44:06;;;;;;;7.47;3.88;;;13.70;27.30;;;;;;5100744;28;20043;-71
2021/08/27 01:46:36;;;;;;;6.55;4.40;;;13.70;27.50;;;;;;5104747;28;20047;-72
2021/08/27 01:49:06;;;;;;;7.82;3.75;;;13.70;28.10;;;;;;5083748;28;20135;-72
2021/08/27 01:51:37;;;;;;;7.95;3.83;;;13.70;28.20;;;;;;5095620;28;20107;-72
2021/08/27 01:54:06;;;;;;;6.65;3.83;;;13.70;28.70;;;;;;5104418;28;20062;-72
2021/08/27 01:56:36;;;;;;;6.50;3.78;;;13.70;29.50;;;;;;5098253;28;20043;-72
2021/08/27 01:59:05;;;;;;;7.60;3.92;;;13.80;29.20;;;;;;5100440;28;20550;-72
2021/08/27 02:01:35;;;;;;;6.53;3.92;;;13.80;29.10;;;;;;5097617;28;20100;-72
2021/08/27 02:04:08;;;;;;;5.88;3.63;;;13.80;29.00;;;;;;5099493;28;20048;-72
2021/08/27 02:06:39;;;;;;;8.63;4.22;;;13.70;29.70;;;;;;5100995;28;20067;-72
2021/08/27 02:09:08;;;;;;;7.22;4.05;;;13.70;29.90;;;;;;5099660;28;20048;-72
2021/08/27 02:11:38;;;;;;;7.47;3.92;;;13.70;30.00;;;;;;5090740;28;20090;-72
2021/08/27 02:14:07;;;;;;;6.03;4.05;;;13.70;30.60;;;;;;5101917;28;20047;-72
2021/08/27 02:16:35;;;;;;;6.80;4.18;;;13.70;31.70;;;;;;5102569;27;20401;-72
2021/08/27 02:19:04;;;;;;;7.00;4.60;;;13.70;30.80;;;;;;5104349;28;20071;-72
2021/08/27 02:21:40;;;;;;;11.27;4.70;;;13.70;31.60;;;;;;5095620;28;20089;-72
2021/08/27 02:24:14;;;;;;;9.13;4.00;;;13.60;31.60;;;;;;5096152;28;20453;-72
2021/08/27 02:26:44;;;;;;;7.68;4.47;;;13.60;32.50;;;;;;5101881;28;20048;-72
2021/08/27 02:29:14;;;;;;;6.82;4.18;;;13.60;33.80;;;;;;5099721;28;20047;-72
2021/08/27 02:31:45;;;;;;;5.93;4.20;;;13.60;33.50;;;;;;5088261;28;20544;-72
2021/08/27 02:34:16;;;;;;;5.88;3.80;;;13.60;33.60;;;;;;5101587;28;20043;-72
2021/08/27 02:36:49;;;;;;;7.75;4.63;;;13.60;34.50;;;;;;5101287;28;20511;-72
2021/08/27 02:39:20;;;;;;;9.77;4.30;;;13.60;34.20;;;;;;5095297;28;20048;-72
2021/08/27 02:41:49;;;;;;;7.13;4.53;;;13.60;34.10;;;;;;5102719;28;20039;-72
2021/08/27 02:44:17;;;;;;;9.10;3.80;;;13.60;35.40;;;;;;5102230;28;20039;-72
2021/08/27 02:46:45;;;;;;;6.05;4.10;;;13.60;35.10;;;;;;5084609;28;20056;-72
2021/08/27 02:49:14;;;;;;;7.05;3.95;;;13.60;34.50;;;;;;5096362;28;20097;-72
2021/08/27 02:51:47;;;;;;;6.75;4.47;;;13.50;35.90;;;;;;5098543;28;20043;-72
2021/08/27 02:54:19;;;;;;;7.10;4.22;;;13.50;38.10;;;;;;5102176;28;20047;-72
2021/08/27 02:56:50;;;;;;;6.78;4.43;;;13.40;39.50;;;;;;5094922;28;20419;-72
2021/08/27 02:59:21;;;;;;;9.77;4.72;;;13.40;40.70;;;;;;5099144;28;20103;-72
2021/08/27 03:01:51;;;;;;;8.20;4.22;;;13.30;41.20;;;;;;5096932;28;21521;-72
2021/08/27 03:04:28;;;;;;;6.57;4.35;;;13.30;41.40;;;;;;5081730;28;20043;-72
2021/08/27 03:07:05;;;;;;;7.97;4.68;;;13.30;42.20;;;;;;5086215;28;20044;-72
2021/08/27 03:09:38;;;;;;;7.47;3.85;;;13.30;42.40;;;;;;5091085;28;20044;-72
2021/08/27 03:12:11;;;;;;;5.67;4.43;;;13.30;43.00;;;;;;5096067;28;20051;-72
2021/08/27 03:14:42;;;;;;;6.10;4.40;;;13.30;42.70;;;;;;5099846;28;20507;-71
2021/08/27 03:17:15;;;;;;;6.45;4.47;;;13.30;42.00;;;;;;5100901;28;20055;-72
2021/08/27 03:19:51;;;;;;;9.15;5.00;;;13.30;43.00;;;;;;5094025;28;20141;-71
2021/08/27 03:22:23;;;;;;;7.55;4.85;;;13.30;41.90;;;;;;5099874;28;20042;-72
2021/08/27 03:24:59;;;;;;;7.78;4.38;;;13.30;42.10;;;;;;5098393;28;20104;-71
2021/08/27 03:27:34;;;;;;;8.15;4.93;;;13.30;42.30;;;;;;5099331;28;20044;-72
2021/08/27 03:30:07;;;;;;;12.02;5.00;;;13.30;42.30;;;;;;5094596;28;20044;-72
2021/08/27 03:32:35;;;;;;;9.85;5.47;;;13.30;42.80;;;;;;5099785;28;20043;-71
2021/08/27 03:35:04;;;;;;;7.20;5.35;;;13.30;41.40;;;;;;5102108;28;20532;-72
2021/08/27 03:37:34;;;;;;;6.70;5.10;;;13.30;43.20;;;;;;5097127;28;20395;-72
2021/08/27 03:40:03;;;;;;;10.90;5.93;;;13.30;43.10;;;;;;5092209;28;20075;-71
2021/08/27 03:42:33;;;;;;;9.82;6.18;;;13.40;43.10;;;;;;5067083;28;20624;-72
2021/08/27 03:45:01;;;;;;;7.50;5.65;;;13.30;42.70;;;;;;5095158;28;20044;-72
2021/08/27 03:47:31;;;;;;;10.98;6.38;;;13.40;43.50;;;;;;5103608;28;20092;-72
2021/08/27 03:49:59;;;;;;;7.72;5.78;;;13.40;43.10;;;;;;5090381;28;20040;-72
2021/08/27 03:52:28;;;;;;;11.18;6.22;;;13.30;43.70;;;;;;5097327;28;20108;-72
2021/08/27 03:54:57;;;;;;;8.30;6.03;;;13.20;44.60;;;;;;5100349;28;20503;-72
2021/08/27 03:57:26;;;;;;;11.15;7.65;;;13.30;45.20;;;;;;5098010;28;20112;-72
2021/08/27 03:59:55;;;;;;;9.63;6.68;;;13.30;45.00;;;;;;5096307;28;20095;-72
2021/08/27 04:02:24;;;;;;;14.30;7.35;;;13.10;46.70;;;;;;5095860;28;20331;-72
2021/08/27 04:05:07;;;;;;;12.45;6.95;;;13.20;46.90;;;;;;5094116;28;20070;-72
2021/08/27 04:07:35;;;;;;;12.32;7.25;;;13.20;46.50;;;;;;5099784;28;20040;-72
2021/08/27 04:10:04;;;;;;;9.52;6.65;;;13.10;46.80;;;;;;5091192;28;20101;-72
2021/08/27 04:12:33;;;;;;;10.98;6.82;;;13.10;47.20;;;;;;5102373;28;20056;-73
2021/08/27 04:15:03;;;;;;;12.23;6.97;;;13.00;48.00;;;;;;5101340;28;20047;-73
2021/08/27 04:17:31;;;;;;;14.60;7.35;;;13.00;48.00;;;;;;5100605;28;20288;-72
2021/08/27 04:19:59;;;;;;;11.27;6.90;;;13.10;46.70;;;;;;5090487;28;20203;-72
2021/08/27 04:22:27;;;;;;;10.48;6.65;;;13.10;46.60;;;;;;5080430;28;20051;-72
2021/08/27 04:24:55;;;;;;;11.73;6.75;;;13.10;46.60;;;;;;5099879;28;20223;-72
2021/08/27 04:27:23;;;;;;;12.32;6.38;;;13.10;45.50;;;;;;5096452;28;20044;-72
2021/08/27 04:29:51;;;;;;;9.88;6.18;;;13.10;45.50;;;;;;5097178;28;20192;-73
2021/08/27 04:32:21;;;;;;;10.43;6.28;;;13.10;45.70;;;;;;5100675;28;20044;-72
2021/08/27 04:34:49;;;;;;;12.65;6.32;;;13.10;44.50;;;;;;5096834;28;20070;-72
2021/08/27 04:37:17;;;;;;;8.35;5.60;;;13.10;44.80;;;;;;5101390;28;20067;-73
2021/08/27 04:39:45;;;;;;;10.10;6.30;;;13.10;44.40;;;;;;5092420;28;20064;-70
2021/08/27 04:42:13;;;;;;;9.65;6.60;;;13.10;44.50;;;;;;5098559;28;20048;-72
2021/08/27 04:44:41;;;;;;;9.18;6.60;;;13.10;44.00;;;;;;5103376;28;20403;-73
2021/08/27 04:47:09;;;;;;;10.25;6.32;;;13.10;44.40;;;;;;5104228;28;20071;-71
2021/08/27 04:49:38;;;;;;;13.38;6.78;;;13.20;44.90;;;;;;5098614;28;20077;-71
2021/08/27 04:52:07;;;;;;;12.32;6.70;;;13.20;44.40;;;;;;5101893;28;20050;-70
2021/08/27 04:54:35;;;;;;;11.00;6.82;;;13.30;44.20;;;;;;5102433;28;20415;-72
2021/08/27 04:57:04;;;;;;;9.60;6.78;;;13.20;44.10;;;;;;5101087;28;20562;-71
2021/08/27 04:59:33;;;;;;;10.63;6.43;;;13.10;45.20;;;;;;5096164;28;20351;-71
2021/08/27 05:02:01;;;;;;;11.30;7.30;;;13.20;45.80;;;;;;5101042;27;20076;-70
2021/08/27 05:04:29;;;;;;;11.73;6.75;;;13.10;44.60;;;;;;5104649;28;20051;-70
2021/08/27 05:06:58;;;;;;;10.52;7.00;;;13.10;45.10;;;;;;5097821;28;20403;-71
2021/08/27 05:09:27;;;;;;;11.48;6.88;;;13.00;45.60;;;;;;5092822;28;20101;-71
2021/08/27 05:11:55;;;;;;;10.40;7.15;;;13.10;46.00;;;;;;5098429;28;20060;-72
2021/08/27 05:14:23;;;;;;;9.00;7.03;;;13.10;45.40;;;;;;5099636;28;20052;-72
2021/08/27 05:16:51;;;;;;;11.30;7.32;;;13.10;44.90;;;;;;5103893;28;20048;-72
2021/08/27 05:19:19;;;;;;;12.60;7.93;;;13.20;44.70;;;;;;5097696;28;20048;-72
2021/08/27 05:21:47;;;;;;;13.07;7.93;;;13.20;44.50;;;;;;5079991;28;20075;-72
2021/08/27 05:24:17;;;;;;;11.55;8.38;;;13.20;43.80;;;;;;5099442;28;20112;-72
2021/08/27 05:26:45;;;;;;;10.38;7.45;;;13.30;43.70;;;;;;5103417;28;20063;-71
2021/08/27 05:29:13;;;;;;;12.07;7.82;;;13.30;44.20;;;;;;5097861;28;20676;-72
2021/08/27 05:31:41;;;;;;;14.35;9.27;;;13.50;44.10;;;;;;5098203;28;20056;-72
2021/08/27 05:34:09;;;;;;;16.60;9.45;;;13.40;43.70;;;;;;5099662;28;20040;-72
2021/08/27 05:36:37;;;;;;;14.10;9.55;;;13.40;43.70;;;;;;5100453;28;20078;-71
2021/08/27 05:39:05;;;;;;;15.40;10.10;;;13.30;45.40;;;;;;5099221;28;20056;-72
2021/08/27 05:41:34;;;;;;;15.82;10.40;;;13.50;44.10;;;;;;5095907;28;20052;-71
2021/08/27 05:44:03;;;;;;;13.88;9.77;;;13.50;43.80;;;;;;5099962;28;20048;-71
2021/08/27 05:46:31;;;;;;;14.73;10.10;;;13.60;43.30;;;;;;5101328;28;20074;-72
2021/08/27 05:48:59;;;;;;;14.68;9.73;;;13.50;43.90;;;;;;5101921;28;20112;-71
2021/08/27 05:51:27;;;;;;;12.88;9.15;;;13.40;44.60;;;;;;5093580;28;20048;-71
2021/08/27 05:53:55;;;;;;;12.90;9.10;;;13.50;45.30;;;;;;5102031;28;20112;-71
2021/08/27 05:56:23;;;;;;;12.40;9.10;;;13.50;44.50;;;;;;5101240;28;20093;-72
2021/08/27 05:58:52;;;;;;;13.77;9.30;;;13.50;43.10;;;;;;5102778;28;20491;-72
2021/08/27 06:01:20;;;;;;;13.35;8.48;;;13.80;41.90;;;;;;5098333;28;20036;-70
2021/08/27 06:03:49;;;;;;;12.70;9.20;;;14.10;38.20;;;;;;5082864;28;20452;-72
2021/08/27 06:06:17;;;;;;;10.65;7.75;;;14.50;33.60;;;;;;5100012;28;20039;-72
2021/08/27 06:08:45;;;;;;;10.95;6.90;;;14.60;31.20;;;;;;5095678;28;20523;-72
2021/08/27 06:11:13;;;;;;;11.90;8.57;;;14.40;28.70;;;;;;5076989;28;20210;-73
2021/08/27 06:13:41;;;;;;;12.00;8.05;;;14.50;30.10;;;;;;5099698;28;20469;-72
2021/08/27 06:16:10;;;;;;;9.90;6.90;;;14.00;31.60;;;;;;5105832;28;20036;-72
2021/08/27 06:18:38;;;;;;;12.10;7.70;;;14.10;32.30;;;;;;5097378;28;20040;-72
2021/08/27 06:21:06;;;;;;;9.52;7.22;;;14.20;32.40;;;;;;5094039;28;20600;-72
2021/08/27 06:23:35;;;;;;;11.68;8.40;;;13.90;31.90;;;;;;5101227;28;20044;-72
2021/08/27 06:26:03;;;;;;;12.02;7.53;;;14.00;34.00;;;;;;5096002;28;20036;-72
2021/08/27 06:28:31;;;;;;;11.73;8.35;;;14.10;30.20;;;;;;5102031;28;20092;-72
2021/08/27 06:30:59;;;;;;;10.55;8.40;;;14.00;30.40;;;;;;5096203;28;20086;-72
2021/08/27 06:33:30;;;;;;;13.02;7.90;;;14.00;31.20;;;;;;5098317;28;20046;-71
2021/08/27 06:35:58;;;;;;;9.93;7.72;;;14.10;30.30;;;;;;5103143;28;20043;-71
2021/08/27 06:38:26;;;;;;;12.27;7.55;;;14.10;29.50;;;;;;5098041;28;20062;-73
2021/08/27 06:41:02;;;;;;;10.68;7.53;;;14.30;27.50;;;;;;5095391;28;20043;-72
2021/08/27 06:43:31;;;;;;;9.60;5.93;;;14.60;25.20;;;;;;5103122;28;20108;-72
2021/08/27 06:46:02;;;;;;;10.52;7.05;;;14.50;22.20;;;;;;5094979;28;20129;-72
2021/08/27 06:48:32;;;;;;;8.60;6.80;;;14.80;20.40;;;;;;5102575;28;20059;-72
2021/08/27 06:51:00;;;;;;;10.63;6.80;;;14.80;21.10;;;;;;5093230;27;20047;-72
2021/08/27 06:53:28;;;;;;;8.77;5.53;;;15.10;18.50;;;;;;5105606;28;20056;-71
2021/08/27 06:55:57;;;;;;;7.80;5.20;;;15.30;17.90;;;;;;5101765;28;20040;-72
2021/08/27 06:58:25;;;;;;;8.05;5.32;;;15.50;16.10;;;;;;5099566;28;20051;-72
2021/08/27 07:00:53;;;;;;;7.78;4.70;;;14.60;18.00;;;;;;5094455;28;20047;-72
2021/08/27 07:03:21;;;;;;;8.00;4.72;;;15.10;18.50;;;;;;5088767;28;20047;-72
2021/08/27 07:05:51;;;;;;;4.80;4.00;;;15.30;15.40;;;;;;5096934;28;20040;-72
2021/08/27 07:08:19;;;;;;;5.80;4.03;;;14.90;14.60;;;;;;5101324;28;20039;-72
2021/08/27 07:10:47;;;;;;;5.45;3.80;;;15.50;13.40;;;;;;5093023;28;21789;-72
2021/08/27 07:13:16;;;;;;;6.95;3.50;;;15.30;11.40;;;;;;5103003;28;20048;-72
2021/08/27 07:15:44;;;;;;;4.53;3.83;;;15.60;13.40;;;;;;5101119;28;20100;-71
2021/08/27 07:18:12;;;;;;;6.68;4.43;;;15.40;11.00;;;;;;5098627;28;20051;-72
2021/08/27 07:20:41;;;;;;;7.32;3.70;;;14.90;12.50;;;;;;5078442;28;20537;-72
2021/08/27 07:23:13;;;;;;;6.28;3.05;;;15.70;7.90;;;;;;5097874;28;20082;-72
2021/08/27 07:25:41;;;;;;;4.72;2.80;;;15.50;6.00;;;;;;5097692;28;20039;-71
2021/08/27 07:28:09;;;;;;;6.63;4.35;;;15.10;5.90;;;;;;5096058;28;20124;-71
2021/08/27 07:30:39;;;;;;;5.43;2.97;;;14.70;7.30;;;;;;5090791;28;20055;-71
2021/08/27 07:33:08;;;;;;;5.90;3.40;;;15.10;7.50;;;;;;5100445;28;20058;-72
2021/08/27 07:35:36;;;;;;;5.15;3.15;;;15.10;7.90;;;;;;5099567;28;20059;-73
2021/08/27 07:38:04;;;;;;;4.03;2.80;;;15.30;8.60;;;;;;5100831;28;20575;-72
2021/08/27 07:40:33;;;;;;;5.72;2.75;;;15.20;6.50;;;;;;5094966;27;20120;-72
2021/08/27 07:43:02;;;;;;;3.92;2.75;;;15.40;7.00;;;;;;5100038;28;20044;-72
2021/08/27 07:45:30;;;;;;;3.78;2.42;;;15.90;4.90;;;;;;5101021;28;20100;-71
2021/08/27 07:47:58;;;;;;;5.97;2.65;;;16.00;4.40;;;;;;5098941;28;20075;-72
2021/08/27 07:50:26;;;;;;;4.57;2.72;;;16.00;3.20;;;;;;5075495;28;20055;-70
2021/08/27 07:52:54;;;;;;;6.85;2.38;;;15.80;2.30;;;;;;5064182;28;20044;-71
2021/08/27 07:55:23;;;;;;;3.03;2.40;;;15.40;2.80;;;;;;5090405;28;20047;-70
2021/08/27 07:57:53;;;;;;;5.90;2.47;;;15.40;4.90;;;;;;5101676;28;20056;-71
2021/08/27 08:00:21;;;;;;;4.22;2.65;;;16.00;3.50;;;;;;5096727;28;20047;-71
2021/08/27 08:02:49;;;;;;;5.72;2.35;;;15.70;2.10;;;;;;5102318;28;20500;-71
2021/08/27 08:05:18;;;;;;;3.38;2.25;;;15.70;1.70;;;;;;5097924;28;20159;-71
2021/08/27 08:07:46;;;;;;;3.63;2.10;;;15.80;2.60;;;;;;5099970;28;20644;-71
2021/08/27 08:10:14;;;;;;;4.03;2.33;;;15.70;1.40;;;;;;5095577;28;20043;-71
2021/08/27 08:12:42;;;;;;;3.72;2.03;;;15.10;2.10;;;;;;5097934;28;20116;-71
2021/08/27 08:15:12;;;;;;;4.85;3.50;;;15.00;1.20;;;;;;5101059;28;20043;-72
2021/08/27 08:17:40;;;;;;;5.93;3.38;;;15.20;2.60;;;;;;5100506;28;20096;-72
2021/08/27 08:20:09;;;;;;;4.60;2.53;;;16.20;1.00;;;;;;5099882;28;20475;-71
2021/08/27 08:22:37;;;;;;;3.72;2.00;;;16.70;1.00;;;;;;5091775;28;20093;-72
2021/08/27 08:25:06;;;;;;;3.10;2.20;;;16.40;1.00;;;;;;5103740;28;20048;-71
2021/08/27 08:27:34;;;;;;;4.32;2.35;;;15.50;2.40;;;;;;5086781;28;20055;-72
2021/08/27 08:30:03;;;;;;;5.78;1.95;;;15.30;1.20;;;;;;5086138;28;20047;-73
2021/08/27 08:32:33;;;;;;;2.92;1.70;;;15.50;1.00;;;;;;5099755;28;20367;-71
2021/08/27 08:35:05;;;;;;;4.70;1.80;;;15.60;1.00;;;;;;5102676;28;20105;-72
2021/08/27 08:37:33;;;;;;;7.38;1.88;;;16.00;1.00;;;;;;5100580;28;20040;-72
2021/08/27 08:40:02;;;;;;;5.93;1.77;;;16.30;1.00;;;;;;5098750;28;20104;-71
2021/08/27 08:42:30;;;;;;;1.70;1.33;;;16.70;1.00;;;;;;5102095;28;20493;-71
2021/08/27 08:44:58;;;;;;;5.32;1.73;;;17.00;1.00;;;;;;5098530;28;20047;-71
2021/08/27 08:47:28;;;;;;;7.18;2.05;;;16.10;1.00;;;;;;5077186;28;20055;-70
2021/08/27 08:49:59;;;;;;;9.57;1.92;;;16.10;1.00;;;;;;5102358;28;20137;-72
2021/08/27 08:52:27;;;;;;;4.78;1.95;;;16.00;1.00;;;;;;5098348;27;20074;-71
2021/08/27 08:54:56;;;;;;;3.92;1.58;;;16.20;1.00;;;;;;5098357;28;20089;-71
2021/08/27 08:57:24;;;;;;;4.68;1.73;;;15.70;1.00;;;;;;5102911;28;20105;-72
2021/08/27 08:59:53;;;;;;;4.80;2.10;;;15.70;1.00;;;;;;5100499;28;20058;-71
2021/08/27 09:02:22;;;;;;;3.22;1.88;;;15.90;1.00;;;;;;5101364;28;20061;-72
2021/08/27 09:04:50;;;;;;;6.13;1.80;;;16.10;1.00;;;;;;5104479;28;20063;-71
2021/08/27 09:07:19;;;;;;;4.63;1.45;;;16.30;1.00;;;;;;5102921;28;20051;-71
2021/08/27 09:09:48;;;;;;;2.65;1.40;;;16.30;1.00;;;;;;5098743;28;20039;-72
2021/08/27 09:12:19;;;;;;;5.47;1.85;;;15.80;1.00;;;;;;5100623;28;20039;-71
2021/08/27 09:15:01;;;;;;;7.38;1.40;;;16.30;1.00;;;;;;5104851;28;20040;-72
2021/08/27 09:17:31;;;;;;;4.32;1.48;;;15.80;1.00;;;;;;5100107;28;20100;-71
2021/08/27 09:20:04;;;;;;;3.40;1.38;;;15.80;1.00;;;;;;5106150;28;20390;-72
2021/08/27 09:22:56;;;;;;;4.53;1.80;;;15.60;1.00;;;;;;5081617;28;20056;-70
2021/08/27 09:25:25;;;;;;;4.53;1.45;;;15.60;1.00;;;;;;5097777;28;20039;-70
2021/08/27 09:28:06;;;;;;;3.00;1.38;;;15.80;1.00;;;;;;5100080;28;20109;-71
2021/08/27 09:30:36;;;;;;;2.97;1.50;;;16.30;1.00;;;;;;5099802;28;20098;-71
2021/08/27 09:33:09;;;;;;;4.45;1.50;;;16.00;1.00;;;;;;5100319;28;20090;-71
2021/08/27 09:35:37;;;;;;;4.30;1.50;;;16.20;1.00;;;;;;5102646;28;20052;-71
2021/08/27 09:38:15;;;;;;;3.42;1.48;;;15.80;1.00;;;;;;5098599;28;20047;-71
2021/08/27 09:40:48;;;;;;;4.65;1.52;;;16.00;1.00;;;;;;5102212;28;20069;-72
2021/08/27 09:43:25;;;;;;;4.05;1.70;;;16.20;1.00;;;;;;5100590;28;20079;-70
2021/08/27 09:45:53;;;;;;;4.45;1.92;;;16.10;1.00;;;;;;5100442;28;20511;-71
2021/08/27 09:48:21;;;;;;;4.88;1.58;;;16.60;1.00;;;;;;5097028;28;20047;-73
2021/08/27 09:50:50;;;;;;;3.97;1.42;;;17.10;1.00;;;;;;5096775;28;20047;-71
2021/08/27 09:53:20;;;;;;;3.25;1.83;;;16.90;1.00;;;;;;5102894;28;20577;-72
2021/08/27 09:55:56;;;;;;;3.40;1.70;;;17.40;1.00;;;;;;5101524;28;20495;-71
2021/08/27 09:58:25;;;;;;;6.15;1.90;;;16.90;1.00;;;;;;5097160;28;20178;-72
2021/08/27 10:01:04;;;;;;;4.80;1.85;;;17.40;1.00;;;;;;5101689;28;20044;-73
2021/08/27 10:03:33;;;;;;;3.30;1.80;;;18.00;1.00;;;;;;5101677;28;20279;-69
2021/08/27 10:06:03;;;;;;;3.15;1.52;;;17.00;1.00;;;;;;5099312;28;20491;-69
2021/08/27 10:08:35;;;;;;;4.50;1.77;;;17.00;1.00;;;;;;5097402;28;20244;-72
2021/08/27 10:11:19;;;;;;;5.88;1.60;;;17.20;1.00;;;;;;5098290;28;20055;-71
2021/08/27 10:13:47;;;;;;;6.00;1.90;;;17.20;1.00;;;;;;5101701;28;20101;-71
2021/08/27 10:16:15;;;;;;;4.85;1.70;;;17.90;1.00;;;;;;5101360;28;20055;-71
2021/08/27 10:18:43;;;;;;;2.10;1.70;;;18.00;1.00;;;;;;5096804;28;20388;-70
2021/08/27 10:21:12;;;;;;;11.07;2.20;;;17.80;1.00;;;;;;5100507;28;20071;-71
2021/08/27 10:23:44;;;;;;;4.50;1.90;;;17.40;1.00;;;;;;5101603;28;20031;-71
2021/08/27 10:26:16;;;;;;;5.07;2.42;;;17.50;1.00;;;;;;5085985;28;20483;-71
2021/08/27 10:28:45;;;;;;;6.63;2.08;;;17.80;1.00;;;;;;5095250;28;20043;-72
2021/08/27 10:31:13;;;;;;;4.80;2.17;;;18.10;1.00;;;;;;5099694;28;20588;-71
2021/08/27 10:34:02;;;;;;;5.32;2.00;;;17.40;1.00;;;;;;5099673;28;20040;-72
2021/08/27 10:37:02;;;;;;;2.42;1.95;;;17.50;1.00;;;;;;5100698;28;20040;-72
2021/08/27 10:39:41;;;;;;;4.22;2.20;;;17.20;1.00;;;;;;5079981;28;20190;-71
2021/08/27 10:42:10;;;;;;;3.83;2.40;;;17.30;1.00;;;;;;5102644;28;20495;-71
2021/08/27 10:44:58;;;;;;;8.40;2.95;;;16.70;1.00;;;;;;5100741;28;20074;-71
2021/08/27 10:47:27;;;;;;;4.55;2.95;;;16.80;1.00;;;;;;5094035;28;20511;-71
2021/08/27 10:49:59;;;;;;;6.22;2.53;;;16.60;1.00;;;;;;5091731;28;20056;-71
2021/08/27 10:52:37;;;;;;;6.15;2.95;;;16.60;1.00;;;;;;5101475;28;20043;-71
2021/08/27 10:55:17;;;;;;;7.18;3.08;;;16.60;1.00;;;;;;5099522;28;20085;-72
2021/08/27 10:57:54;;;;;;;4.30;2.60;;;16.90;1.00;;;;;;5079214;28;20453;-70
2021/08/27 11:00:41;;;;;;;4.15;2.90;;;16.80;1.00;;;;;;5102030;28;20112;-72
2021/08/27 11:03:13;;;;;;;5.55;3.40;;;17.10;1.00;;;;;;5099043;28;20113;-74
2021/08/27 11:05:45;;;;;;;6.93;3.50;;;17.00;1.00;;;;;;5101627;28;20521;-71
2021/08/27 11:08:14;;;;;;;7.40;3.03;;;16.80;1.00;;;;;;5078131;28;20485;-71
2021/08/27 11:11:22;;;;;;;9.23;2.97;;;17.20;1.00;;;;;;5100604;28;20411;-71
2021/08/27 11:13:50;;;;;;;6.03;3.10;;;17.40;1.00;;;;;;5099318;28;20058;-72
2021/08/27 11:16:26;;;;;;;5.97;2.97;;;18.10;1.00;;;;;;5101106;28;20044;-71
2021/08/27 11:18:55;;;;;;;5.22;2.80;;;17.40;1.00;;;;;;5091794;28;20039;-72
2021/08/27 11:21:32;;;;;;;4.20;2.90;;;18.00;1.00;;;;;;5098425;28;20051;-72
2021/08/27 11:24:14;;;;;;;4.32;2.85;;;18.10;1.00;;;;;;5100307;28;20062;-72
2021/08/27 11:26:46;;;;;;;4.40;3.00;;;17.70;1.00;;;;;;5077636;28;20519;-72
2021/08/27 11:29:27;;;;;;;4.32;2.75;;;17.30;1.00;;;;;;5069044;28;20133;-72
2021/08/27 11:31:55;;;;;;;4.53;3.20;;;17.40;1.00;;;;;;5080518;28;20565;-71
2021/08/27 11:34:26;;;;;;;3.63;2.60;;;17.40;1.00;;;;;;5080931;28;20124;-71
2021/08/27 11:36:55;;;;;;;3.00;2.70;;;17.10;1.00;;;;;;5079402;28;20074;-71
2021/08/27 11:39:24;;;;;;;4.50;3.25;;;17.20;1.00;;;;;;5073495;28;20052;-72
2021/08/27 11:41:53;;;;;;;6.97;3.25;;;17.10;1.00;;;;;;5083155;28;20064;-73
2021/08/27 11:44:21;;;;;;;4.80;2.72;;;17.10;1.00;;;;;;5084953;28;20098;-71
2021/08/27 11:46:50;;;;;;;5.30;2.70;;;17.00;1.00;;;;;;5074291;28;20051;-71
2021/08/27 11:49:29;;;;;;;4.63;2.60;;;17.20;1.00;;;;;;5076511;28;20063;-71
2021/08/27 11:52:11;;;;;;;4.80;2.70;;;16.80;1.00;;;;;;5077937;28;20045;-71
2021/08/27 11:54:40;;;;;;;3.67;2.50;;;16.80;1.00;;;;;;5085583;28;20067;-72
2021/08/27 11:57:22;;;;;;;5.90;2.50;;;16.70;1.00;;;;;;5084787;28;20400;-71
2021/08/27 11:59:49;;;;;;;7.03;2.80;;;16.80;1.00;;;;;;5076648;28;20059;-71
2021/08/27 12:02:21;;;;;;;4.93;2.80;;;17.20;1.00;;;;;;5084743;28;20101;-72
2021/08/27 12:04:57;;;;;;;3.40;2.47;;;17.30;1.00;;;;;;5086278;28;20550;-71
2021/08/27 12:07:27;;;;;;;2.30;2.10;;;17.30;1.00;;;;;;5083732;28;20365;-72
2021/08/27 12:10:10;;;;;;;5.18;2.38;;;17.40;1.00;;;;;;5075215;28;20070;-71
2021/08/27 12:12:41;;;;;;;3.60;2.30;;;17.50;1.00;;;;;;5084471;28;20043;-72
2021/08/27 12:15:12;;;;;;;4.95;2.30;;;17.20;1.00;;;;;;5079120;28;20309;-72
2021/08/27 12:17:41;;;;;;;3.83;1.88;;;18.00;1.00;;;;;;5075953;28;20419;-71
2021/08/27 12:20:11;;;;;;;3.53;2.08;;;17.90;1.00;;;;;;5081167;28;20132;-71
2021/08/27 12:22:45;;;;;;;4.00;1.98;;;17.50;1.00;;;;;;5082786;28;20059;-71
2021/08/27 12:25:23;;;;;;;5.72;2.13;;;17.90;1.00;;;;;;5083668;28;20044;-71
2021/08/27 12:28:12;;;;;;;7.15;2.28;;;17.90;1.00;;;;;;5080146;28;20048;-71
2021/08/27 12:30:44;;;;;;;7.75;2.22;;;17.50;1.00;;;;;;5086678;28;20117;-70
2021/08/27 12:33:15;;;;;;;3.28;2.03;;;17.80;1.00;;;;;;5079466;28;20151;-70
2021/08/27 12:35:44;;;;;;;4.10;2.33;;;17.70;1.00;;;;;;5089081;28;20048;-69
2021/08/27 12:38:16;;;;;;;3.35;1.95;;;18.00;1.00;;;;;;5077333;28;20059;-72
2021/08/27 12:40:46;;;;;;;2.67;2.15;;;17.50;1.00;;;;;;5085536;28;20047;-69
2021/08/27 12:43:21;;;;;;;4.00;2.72;;;17.70;1.00;;;;;;5079095;28;20048;-69
2021/08/27 12:45:52;;;;;;;5.40;2.30;;;17.40;1.00;;;;;;5024755;28;20055;-70
2021/08/27 12:48:22;;;;;;;3.80;1.90;;;18.00;1.00;;;;;;5073886;28;20420;-70
2021/08/27 12:50:53;;;;;;;3.90;1.40;;;18.40;1.00;;;;;;5077472;28;20083;-70
2021/08/27 12:53:29;;;;;;;2.10;1.50;;;17.90;1.00;;;;;;5098333;27;20060;-69
2021/08/27 12:56:08;;;;;;;3.40;1.50;;;18.00;1.00;;;;;;5089856;28;20051;-70
2021/08/27 12:58:38;;;;;;;2.22;1.52;;;17.90;1.00;;;;;;5083621;28;20511;-70
2021/08/27 13:01:14;;;;;;;3.50;1.50;;;17.90;1.00;;;;;;5096066;28;20048;-71
2021/08/27 13:03:45;;;;;;;2.25;1.50;;;17.90;1.00;;;;;;5081293;28;20084;-70
2021/08/27 13:06:33;;;;;;;3.83;1.90;;;18.30;1.00;;;;;;5081196;28;20040;-69